Lewis Run, Pennsylvania
Current Conditions -  °F | °C
As of 3:53 AM on Thursday 23 Oct 2014 (Local Time) from KBFD Reporting Station
Overcast Overcast  
Wind Chill: 37°   Ceiling: 1100
Heat Index: 42°   Visibility: 10mi
Dew Point: 37°   Wind: 9mph
Humidity: 82%   Direction: 10°N
Pressure: 30.06"   Gusts: 18mph
Location:  41.87°N, 78.66°W
Report Text: KBFD 230753Z AUTO 01008G16KT 10SM OVC011 06/03 A3006 RMK AO2 SLP189 T00560028
Loading
Personal Weather Stations






























Interactive Weather Map
Tropical Storm Tracking
New forecast layout! Learn more

10-Day Weather Forecast

Advertisements
Track Severe Weather on mobile